createdAt,value
2018-08-11T00:00:28.499Z,25.93
2018-08-11T00:02:57.023Z,25.92
2018-08-11T00:05:25.772Z,25.91
2018-08-11T00:07:54.212Z,25.91
2018-08-11T00:10:22.637Z,25.89
2018-08-11T00:12:51.026Z,25.89
2018-08-11T00:15:20.204Z,25.89
2018-08-11T00:17:48.609Z,25.88
2018-08-11T00:20:19.317Z,25.88
2018-08-11T00:22:47.698Z,25.86
2018-08-11T00:25:16.758Z,25.87
2018-08-11T00:27:45.107Z,25.87
2018-08-11T00:30:14.994Z,25.85
2018-08-11T00:32:43.354Z,25.84
2018-08-11T00:35:13.537Z,25.84
2018-08-11T00:37:42.963Z,25.83
2018-08-11T00:40:13.400Z,25.83
2018-08-11T00:42:43.785Z,25.82
2018-08-11T00:45:14.023Z,25.81
2018-08-11T00:47:43.118Z,25.82
2018-08-11T00:50:20.100Z,25.80
2018-08-11T00:52:48.430Z,25.78
2018-08-11T00:55:16.735Z,25.79
2018-08-11T00:57:45.158Z,25.77
2018-08-11T01:00:20.642Z,25.78
2018-08-11T01:02:49.013Z,25.78
2018-08-11T01:05:21.193Z,25.76
2018-08-11T01:07:50.102Z,25.74
2018-08-11T01:10:18.779Z,25.74
2018-08-11T01:12:47.654Z,25.74
2018-08-11T01:15:17.846Z,25.73
2018-08-11T01:17:46.798Z,25.73
2018-08-11T01:20:15.314Z,25.73
2018-08-11T01:22:44.223Z,25.72
2018-08-11T01:25:13.080Z,25.71
2018-08-11T01:27:41.423Z,25.71
2018-08-11T01:30:11.615Z,25.71
2018-08-11T01:32:39.938Z,25.70
2018-08-11T01:35:09.261Z,25.70
2018-08-11T01:37:38.120Z,25.69
2018-08-11T01:40:07.245Z,25.69
2018-08-11T01:42:35.519Z,25.69
2018-08-11T01:45:03.919Z,25.68
2018-08-11T01:47:32.237Z,25.68
2018-08-11T01:50:00.532Z,25.67
2018-08-11T01:52:28.827Z,25.67
2018-08-11T01:54:57.106Z,25.67
2018-08-11T01:57:25.385Z,25.67
2018-08-11T01:59:53.682Z,25.67
2018-08-11T02:02:21.976Z,25.67
2018-08-11T02:04:50.378Z,25.66
2018-08-11T02:07:18.703Z,25.65
2018-08-11T02:09:47.734Z,25.65
2018-08-11T02:12:16.090Z,25.65
2018-08-11T02:14:44.441Z,25.65
2018-08-11T02:17:12.754Z,25.64
2018-08-11T02:19:41.146Z,25.64
2018-08-11T02:22:09.446Z,25.64
2018-08-11T02:24:37.732Z,25.64
2018-08-11T02:27:06.374Z,25.63
2018-08-11T02:29:34.676Z,25.64
2018-08-11T02:32:03.102Z,25.63
2018-08-11T02:34:31.415Z,25.62
2018-08-11T02:36:59.734Z,25.62
2018-08-11T02:39:28.058Z,25.62
2018-08-11T02:41:56.411Z,25.62
2018-08-11T02:44:24.771Z,25.62
2018-08-11T02:46:53.133Z,25.63
2018-08-11T02:49:21.381Z,25.62
2018-08-11T02:51:50.091Z,25.62
2018-08-11T02:54:18.438Z,25.61
2018-08-11T02:56:46.773Z,25.63
2018-08-11T02:59:18.454Z,25.62
2018-08-11T03:01:46.754Z,25.63
2018-08-11T03:04:15.091Z,25.62
2018-08-11T03:06:43.365Z,25.62
2018-08-11T03:09:11.614Z,25.62
2018-08-11T03:11:39.963Z,25.62
2018-08-11T03:14:08.224Z,25.61
2018-08-11T03:16:36.603Z,25.62
2018-08-11T03:19:04.878Z,25.63
2018-08-11T03:21:33.202Z,25.62
2018-08-11T03:24:01.551Z,25.61
2018-08-11T03:26:29.869Z,25.62
2018-08-11T03:28:58.125Z,25.60
2018-08-11T03:31:26.402Z,25.60
2018-08-11T03:33:54.651Z,25.59
2018-08-11T03:36:22.963Z,25.59
2018-08-11T03:38:51.222Z,25.59
2018-08-11T03:41:19.503Z,25.59
2018-08-11T03:43:47.750Z,25.59
2018-08-11T03:46:16.110Z,25.58
2018-08-11T03:48:44.374Z,25.58
2018-08-11T03:51:12.700Z,25.58
2018-08-11T03:53:40.982Z,25.58
2018-08-11T03:56:09.275Z,25.58
2018-08-11T03:58:37.526Z,25.57
2018-08-11T04:01:05.854Z,25.57
2018-08-11T04:03:34.107Z,25.56
2018-08-11T04:06:02.426Z,25.56
2018-08-11T04:08:30.726Z,25.56
2018-08-11T04:10:59.002Z,25.54
2018-08-11T04:13:27.274Z,25.56
2018-08-11T04:15:55.783Z,25.55
2018-08-11T04:18:25.259Z,25.54
2018-08-11T04:20:53.678Z,25.53
2018-08-11T04:23:22.133Z,25.55
2018-08-11T04:25:50.447Z,25.54
2018-08-11T04:28:18.726Z,25.52
2018-08-11T04:30:46.998Z,25.52
2018-08-11T04:33:15.263Z,25.52
2018-08-11T04:35:43.629Z,25.51
2018-08-11T04:38:11.891Z,25.50
2018-08-11T04:40:40.186Z,25.50
2018-08-11T04:43:08.474Z,25.50
2018-08-11T04:45:36.741Z,25.50
2018-08-11T04:48:05.417Z,25.48
2018-08-11T04:50:33.683Z,25.48
2018-08-11T04:53:01.990Z,25.47
2018-08-11T04:55:30.338Z,25.47
2018-08-11T04:57:58.625Z,25.46
2018-08-11T05:00:27.190Z,25.46
2018-08-11T05:02:55.523Z,25.46
2018-08-11T05:05:23.798Z,25.45
2018-08-11T05:07:52.095Z,25.43
2018-08-11T05:10:20.394Z,25.44
2018-08-11T05:12:48.758Z,25.43
2018-08-11T05:15:17.043Z,25.43
2018-08-11T05:17:45.428Z,25.43
2018-08-11T05:20:13.730Z,25.43
2018-08-11T05:22:42.039Z,25.43
2018-08-11T05:25:10.418Z,25.42
2018-08-11T05:27:38.729Z,25.42
2018-08-11T05:30:07.729Z,25.41
2018-08-11T05:32:36.131Z,25.41
2018-08-11T05:35:04.826Z,25.41
2018-08-11T05:37:33.186Z,25.41
2018-08-11T05:40:01.442Z,25.41
2018-08-11T05:42:29.975Z,25.40
2018-08-11T05:44:58.307Z,25.40
2018-08-11T05:47:26.646Z,25.41
2018-08-11T05:49:55.107Z,25.41
2018-08-11T05:52:23.494Z,25.40
2018-08-11T05:54:51.755Z,25.39
2018-08-11T05:57:20.081Z,25.39
2018-08-11T05:59:57.546Z,25.40
2018-08-11T06:02:25.866Z,25.39
2018-08-11T06:04:54.179Z,25.40
2018-08-11T06:07:22.735Z,25.40
2018-08-11T06:09:51.076Z,25.40
2018-08-11T06:12:19.386Z,25.40
2018-08-11T06:14:47.670Z,25.41
2018-08-11T06:17:15.984Z,25.43
2018-08-11T06:19:44.254Z,25.42
2018-08-11T06:22:12.566Z,25.42
2018-08-11T06:24:40.851Z,25.43
2018-08-11T06:27:09.167Z,25.44
2018-08-11T06:29:37.429Z,25.45
2018-08-11T06:32:05.801Z,25.44
2018-08-11T06:34:34.083Z,25.44
2018-08-11T06:37:02.543Z,25.45
2018-08-11T06:39:30.882Z,25.46
2018-08-11T06:41:59.341Z,25.46
2018-08-11T06:44:27.626Z,25.47
2018-08-11T06:46:55.929Z,25.47
2018-08-11T06:49:24.265Z,25.48
2018-08-11T06:51:52.561Z,25.48
2018-08-11T06:54:20.833Z,25.48
2018-08-11T06:56:49.102Z,25.48
2018-08-11T06:59:17.375Z,25.49
2018-08-11T07:01:45.654Z,25.50
2018-08-11T07:04:13.919Z,25.50
2018-08-11T07:06:42.305Z,25.51
2018-08-11T07:09:11.118Z,25.52
2018-08-11T07:11:39.594Z,25.52
2018-08-11T07:14:08.027Z,25.53
2018-08-11T07:16:36.518Z,25.54
2018-08-11T07:19:04.794Z,25.54
2018-08-11T07:21:33.067Z,25.56
2018-08-11T07:24:01.437Z,25.57
2018-08-11T07:26:29.764Z,25.58
2018-08-11T07:28:58.054Z,25.59
2018-08-11T07:31:26.403Z,25.60
2018-08-11T07:33:54.763Z,25.61
2018-08-11T07:36:23.082Z,25.61
2018-08-11T07:38:51.857Z,25.63
2018-08-11T07:41:20.135Z,25.65
2018-08-11T07:43:48.406Z,25.66
2018-08-11T07:46:16.680Z,25.68
2018-08-11T07:48:44.988Z,25.68
2018-08-11T07:51:13.302Z,25.69
2018-08-11T07:53:41.670Z,25.68
2018-08-11T07:56:10.002Z,25.68
2018-08-11T07:58:38.395Z,25.68
2018-08-11T08:01:06.645Z,25.70
2018-08-11T08:03:34.910Z,25.69
2018-08-11T08:06:03.215Z,25.69
2018-08-11T08:08:31.636Z,25.71
2018-08-11T08:10:59.965Z,25.70
2018-08-11T08:13:28.375Z,25.71
2018-08-11T08:15:56.638Z,25.71
2018-08-11T08:18:24.954Z,25.71
2018-08-11T08:20:53.523Z,25.72
2018-08-11T08:23:21.835Z,25.72
2018-08-11T08:25:50.151Z,25.72
2018-08-11T08:28:18.412Z,25.73
2018-08-11T08:30:46.722Z,25.74
2018-08-11T08:33:15.042Z,25.74
2018-08-11T08:35:44.149Z,25.76
2018-08-11T08:38:12.483Z,25.76
2018-08-11T08:40:40.798Z,25.77
2018-08-11T08:43:09.118Z,25.78
2018-08-11T08:45:37.446Z,25.80
2018-08-11T08:48:05.783Z,25.80
2018-08-11T08:50:34.099Z,25.82
2018-08-11T08:53:02.467Z,25.83
2018-08-11T08:55:31.504Z,25.83
2018-08-11T08:57:59.765Z,25.85
2018-08-11T09:00:28.163Z,25.86
2018-08-11T09:02:56.474Z,25.87
2018-08-11T09:05:32.046Z,25.89
2018-08-11T09:08:00.330Z,25.90
2018-08-11T09:10:28.701Z,25.90
2018-08-11T09:12:57.078Z,25.93
2018-08-11T09:15:25.862Z,25.93
2018-08-11T09:17:54.254Z,25.95
2018-08-11T09:20:22.557Z,25.95
2018-08-11T09:22:50.829Z,25.97
2018-08-11T09:25:19.206Z,25.97
2018-08-11T09:27:47.490Z,25.98
2018-08-11T09:30:16.122Z,26.01
2018-08-11T09:32:44.382Z,26.01
2018-08-11T09:35:12.714Z,26.03
2018-08-11T09:37:40.966Z,26.05
2018-08-11T09:40:09.312Z,26.06
2018-08-11T09:42:37.577Z,26.07
2018-08-11T09:45:06.299Z,26.09
2018-08-11T09:47:34.672Z,26.10
2018-08-11T09:50:02.976Z,26.11
2018-08-11T09:52:31.343Z,26.12
2018-08-11T09:54:59.651Z,26.14
2018-08-11T09:57:28.062Z,26.14
2018-08-11T09:59:56.383Z,26.15
2018-08-11T10:02:24.650Z,26.15
2018-08-11T10:04:52.939Z,26.16
2018-08-11T10:07:21.193Z,26.18
2018-08-11T10:09:49.518Z,26.18
2018-08-11T10:12:17.836Z,26.20
2018-08-11T10:14:46.119Z,26.20
2018-08-11T10:17:14.430Z,26.21
2018-08-11T10:19:42.746Z,26.22
2018-08-11T10:22:11.074Z,26.24
2018-08-11T10:24:39.362Z,26.24
2018-08-11T10:27:07.718Z,26.26
2018-08-11T10:29:36.131Z,26.27
2018-08-11T10:32:04.418Z,26.27
2018-08-11T10:34:32.691Z,26.26
2018-08-11T10:37:01.143Z,26.29
2018-08-11T10:39:29.438Z,26.28
2018-08-11T10:41:57.806Z,26.30
2018-08-11T10:44:26.120Z,26.30
2018-08-11T10:46:54.419Z,26.31
2018-08-11T10:49:22.695Z,26.32
2018-08-11T10:51:50.954Z,26.32
2018-08-11T10:54:19.255Z,26.33
2018-08-11T10:56:47.588Z,26.34
2018-08-11T10:59:15.886Z,26.36
2018-08-11T11:01:44.175Z,26.36
2018-08-11T11:04:12.434Z,26.37
2018-08-11T11:06:40.750Z,26.38
2018-08-11T11:09:09.926Z,26.39
2018-08-11T11:11:38.258Z,26.41
2018-08-11T11:14:06.621Z,26.42
2018-08-11T11:16:35.050Z,26.43
2018-08-11T11:19:03.430Z,26.44
2018-08-11T11:21:31.748Z,26.45
2018-08-11T11:23:59.966Z,26.45
2018-08-11T11:26:28.346Z,26.47
2018-08-11T11:28:56.610Z,26.47
2018-08-11T11:31:24.876Z,26.48
2018-08-11T11:33:53.349Z,26.50
2018-08-11T11:36:21.645Z,26.51
2018-08-11T11:38:49.975Z,26.52
2018-08-11T11:41:18.310Z,26.53
2018-08-11T11:43:46.594Z,26.54
2018-08-11T11:46:15.013Z,26.55
2018-08-11T11:48:43.273Z,26.56
2018-08-11T11:51:11.621Z,26.58
2018-08-11T11:53:39.891Z,26.58
2018-08-11T11:56:08.194Z,26.60
2018-08-11T11:58:36.454Z,26.61
2018-08-11T12:01:07.806Z,26.64
2018-08-11T12:03:36.120Z,26.65
2018-08-11T12:06:07.794Z,26.66
2018-08-11T12:08:36.142Z,26.67
2018-08-11T12:11:05.410Z,26.68
2018-08-11T12:13:33.714Z,26.69
2018-08-11T12:16:02.021Z,26.71
2018-08-11T12:18:30.346Z,26.72
2018-08-11T12:20:58.655Z,26.73
2018-08-11T12:23:26.935Z,26.73
2018-08-11T12:25:55.230Z,26.75
2018-08-11T12:28:23.485Z,26.74
2018-08-11T12:30:51.803Z,26.74
2018-08-11T12:33:20.078Z,26.74
2018-08-11T12:35:48.389Z,26.74
2018-08-11T12:38:16.671Z,26.75
2018-08-11T12:40:44.978Z,26.76
2018-08-11T12:43:13.279Z,26.77
2018-08-11T12:45:41.639Z,26.77
2018-08-11T12:48:09.931Z,26.77
2018-08-11T12:50:38.235Z,26.77
2018-08-11T12:53:06.996Z,26.76
2018-08-11T12:55:35.378Z,26.75
2018-08-11T12:58:03.665Z,26.75
2018-08-11T13:00:31.979Z,26.75
2018-08-11T13:03:00.255Z,26.75
2018-08-11T13:05:28.659Z,26.76
2018-08-11T13:07:56.938Z,26.75
2018-08-11T13:10:25.341Z,26.75
2018-08-11T13:12:53.694Z,26.74
2018-08-11T13:15:22.994Z,26.75
2018-08-11T13:17:51.277Z,26.75
2018-08-11T13:20:19.521Z,26.75
2018-08-11T13:22:47.821Z,26.76
2018-08-11T13:25:16.111Z,26.75
2018-08-11T13:27:44.394Z,26.76
2018-08-11T13:30:12.692Z,26.76
2018-08-11T13:32:41.014Z,26.76
2018-08-11T13:35:09.470Z,26.75
2018-08-11T13:37:37.763Z,26.75
2018-08-11T13:40:06.192Z,26.76
2018-08-11T13:42:34.494Z,26.76
2018-08-11T13:45:02.800Z,26.76
2018-08-11T13:47:31.140Z,26.78
2018-08-11T13:49:59.474Z,26.78
2018-08-11T13:52:27.758Z,26.76
2018-08-11T13:54:56.006Z,26.77
2018-08-11T13:57:24.313Z,26.77
2018-08-11T13:59:52.637Z,26.77
2018-08-11T14:02:20.918Z,26.78
2018-08-11T14:04:49.197Z,26.76
2018-08-11T14:07:17.446Z,26.76
2018-08-11T14:09:45.706Z,26.76
2018-08-11T14:12:14.022Z,26.77
2018-08-11T14:14:42.306Z,26.77
2018-08-11T14:17:10.598Z,26.76
2018-08-11T14:19:38.862Z,26.77
2018-08-11T14:22:07.160Z,26.77
2018-08-11T14:24:35.414Z,26.77
2018-08-11T14:27:03.698Z,26.77
2018-08-11T14:29:31.964Z,26.76
2018-08-11T14:32:00.286Z,26.76
2018-08-11T14:34:28.568Z,26.76
2018-08-11T14:36:56.910Z,26.76
2018-08-11T14:39:25.175Z,26.75
2018-08-11T14:41:53.546Z,26.75
2018-08-11T14:44:21.815Z,26.75
2018-08-11T14:46:50.155Z,26.75
2018-08-11T14:49:18.522Z,26.75
2018-08-11T14:51:46.797Z,26.76
2018-08-11T14:54:15.106Z,26.77
2018-08-11T14:56:43.597Z,26.78
2018-08-11T14:59:11.842Z,26.78
2018-08-11T15:01:40.194Z,26.78
2018-08-11T15:04:08.502Z,26.77
2018-08-11T15:06:36.802Z,26.75
2018-08-11T15:09:07.560Z,26.73
2018-08-11T15:11:35.861Z,26.74
2018-08-11T15:14:04.282Z,26.73
2018-08-11T15:16:32.603Z,26.72
2018-08-11T15:19:00.902Z,26.72
2018-08-11T15:21:29.150Z,26.72
2018-08-11T15:23:57.482Z,26.72
2018-08-11T15:26:25.923Z,26.72
2018-08-11T15:28:54.210Z,26.71
2018-08-11T15:31:22.485Z,26.72
2018-08-11T15:33:50.759Z,26.71
2018-08-11T15:36:19.131Z,26.70
2018-08-11T15:38:47.526Z,26.69
2018-08-11T15:41:16.853Z,26.70
2018-08-11T15:43:45.181Z,26.71
2018-08-11T15:46:13.455Z,26.69
2018-08-11T15:48:41.733Z,26.71
2018-08-11T15:51:10.047Z,26.70
2018-08-11T15:53:38.354Z,26.70
2018-08-11T15:56:06.630Z,26.70
2018-08-11T15:58:34.958Z,26.68
2018-08-11T16:01:03.238Z,26.67
2018-08-11T16:03:31.494Z,26.67
2018-08-11T16:05:59.755Z,26.67
2018-08-11T16:08:28.034Z,26.67
2018-08-11T16:10:56.362Z,26.67
2018-08-11T16:13:24.663Z,26.66
2018-08-11T16:15:52.934Z,26.66
2018-08-11T16:18:21.242Z,26.65
2018-08-11T16:20:49.505Z,26.65
2018-08-11T16:23:17.769Z,26.65
2018-08-11T16:25:46.047Z,26.66
2018-08-11T16:28:14.306Z,26.66
2018-08-11T16:30:42.686Z,26.66
2018-08-11T16:33:10.946Z,26.65
2018-08-11T16:35:39.225Z,26.65
2018-08-11T16:38:07.875Z,26.64
2018-08-11T16:40:36.122Z,26.64
2018-08-11T16:43:04.444Z,26.63
2018-08-11T16:45:32.738Z,26.64
2018-08-11T16:48:01.140Z,26.61
2018-08-11T16:50:29.389Z,26.62
2018-08-11T16:52:57.722Z,26.62
2018-08-11T16:55:26.024Z,26.61
2018-08-11T16:57:54.321Z,26.60
2018-08-11T17:00:22.599Z,26.60
2018-08-11T17:02:50.934Z,26.59
2018-08-11T17:05:19.186Z,26.58
2018-08-11T17:07:47.482Z,26.57
2018-08-11T17:10:15.737Z,26.57
2018-08-11T17:12:44.014Z,26.56
2018-08-11T17:15:12.290Z,26.56
2018-08-11T17:17:40.574Z,26.57
2018-08-11T17:20:09.106Z,26.55
2018-08-11T17:22:37.414Z,26.56
2018-08-11T17:25:05.776Z,26.55
2018-08-11T17:27:34.395Z,26.54
2018-08-11T17:30:02.663Z,26.55
2018-08-11T17:32:30.958Z,26.54
2018-08-11T17:34:59.286Z,26.53
2018-08-11T17:37:27.532Z,26.53
2018-08-11T17:39:55.934Z,26.52
2018-08-11T17:42:25.766Z,26.51
2018-08-11T17:44:54.122Z,26.51
2018-08-11T17:47:22.394Z,26.50
2018-08-11T17:49:50.712Z,26.50
2018-08-11T17:52:19.019Z,26.48
2018-08-11T17:54:47.368Z,26.48
2018-08-11T17:57:15.593Z,26.47
2018-08-11T17:59:43.860Z,26.47
2018-08-11T18:02:12.142Z,26.46
2018-08-11T18:04:40.530Z,26.47
2018-08-11T18:07:08.918Z,26.47
2018-08-11T18:09:37.308Z,26.44
2018-08-11T18:12:05.562Z,26.44
2018-08-11T18:14:33.935Z,26.43
2018-08-11T18:17:02.189Z,26.41
2018-08-11T18:19:30.561Z,26.41
2018-08-11T18:21:58.838Z,26.40
2018-08-11T18:24:27.214Z,26.41
2018-08-11T18:26:55.933Z,26.39
2018-08-11T18:29:24.219Z,26.39
2018-08-11T18:31:52.562Z,26.39
2018-08-11T18:34:20.902Z,26.37
2018-08-11T18:36:49.171Z,26.37
2018-08-11T18:39:17.462Z,26.35
2018-08-11T18:41:45.738Z,26.35
2018-08-11T18:44:14.038Z,26.34
2018-08-11T18:46:42.382Z,26.33
2018-08-11T18:49:10.642Z,26.32
2018-08-11T18:51:38.954Z,26.31
2018-08-11T18:54:07.298Z,26.31
2018-08-11T18:56:35.650Z,26.30
2018-08-11T18:59:03.917Z,26.29
2018-08-11T19:01:32.447Z,26.30
2018-08-11T19:04:00.826Z,26.29
2018-08-11T19:06:29.244Z,26.28
2018-08-11T19:08:57.783Z,26.29
2018-08-11T19:11:26.142Z,26.28
2018-08-11T19:13:54.550Z,26.27
2018-08-11T19:16:22.855Z,26.27
2018-08-11T19:18:51.282Z,26.27
2018-08-11T19:21:19.575Z,26.26
2018-08-11T19:23:48.066Z,26.25
2018-08-11T19:26:16.434Z,26.24
2018-08-11T19:28:44.766Z,26.23
2018-08-11T19:31:13.202Z,26.22
2018-08-11T19:33:41.570Z,26.22
2018-08-11T19:36:09.983Z,26.22
2018-08-11T19:38:38.354Z,26.23
2018-08-11T19:41:06.787Z,26.23
2018-08-11T19:43:35.230Z,26.23
2018-08-11T19:46:03.636Z,26.23
2018-08-11T19:48:31.958Z,26.24
2018-08-11T19:51:00.628Z,26.24
2018-08-11T19:53:29.086Z,26.24
2018-08-11T19:55:57.574Z,26.22
2018-08-11T19:58:26.098Z,26.24
2018-08-11T20:00:54.528Z,26.24
2018-08-11T20:03:23.143Z,26.22
2018-08-11T20:05:51.535Z,26.22
2018-08-11T20:08:20.115Z,26.21
2018-08-11T20:10:48.426Z,26.20
2018-08-11T20:13:16.726Z,26.19
2018-08-11T20:15:45.162Z,26.20
2018-08-11T20:18:13.506Z,26.21
2018-08-11T20:20:42.099Z,26.21
2018-08-11T20:23:10.531Z,26.19
2018-08-11T20:25:39.004Z,26.18
2018-08-11T20:28:07.294Z,26.18
2018-08-11T20:30:35.669Z,26.17
2018-08-11T20:33:04.050Z,26.17
2018-08-11T20:35:32.486Z,26.16
2018-08-11T20:38:00.929Z,26.16
2018-08-11T20:40:29.581Z,26.15
2018-08-11T20:42:57.946Z,26.15
2018-08-11T20:45:26.400Z,26.14
2018-08-11T20:47:54.807Z,26.14
2018-08-11T20:50:23.130Z,26.13
2018-08-11T20:52:51.471Z,26.12
2018-08-11T20:55:19.865Z,26.12
2018-08-11T20:57:48.171Z,26.12
2018-08-11T21:00:16.684Z,26.11
2018-08-11T21:02:45.006Z,26.10
2018-08-11T21:05:14.309Z,26.10
2018-08-11T21:07:42.618Z,26.09
2018-08-11T21:10:13.854Z,26.08
2018-08-11T21:12:42.658Z,26.09
2018-08-11T21:15:11.733Z,26.07
2018-08-11T21:17:40.070Z,26.06
2018-08-11T21:20:10.528Z,26.06
2018-08-11T21:22:38.883Z,26.04
2018-08-11T21:25:08.293Z,26.04
2018-08-11T21:27:36.840Z,26.02
2018-08-11T21:30:06.754Z,26.00
2018-08-11T21:32:35.440Z,25.99
2018-08-11T21:35:03.854Z,25.98
2018-08-11T21:37:32.262Z,25.95
2018-08-11T21:40:00.675Z,25.94
2018-08-11T21:42:29.034Z,25.91
2018-08-11T21:44:57.331Z,25.89
2018-08-11T21:47:25.719Z,25.84
2018-08-11T21:49:54.067Z,25.80
2018-08-11T21:52:22.350Z,25.75
2018-08-11T21:54:50.657Z,25.73
2018-08-11T21:57:19.038Z,25.73
2018-08-11T21:59:47.394Z,25.72
2018-08-11T22:02:15.718Z,25.70
2018-08-11T22:04:44.063Z,25.66
2018-08-11T22:07:12.462Z,25.65
2018-08-11T22:09:40.722Z,25.62
2018-08-11T22:12:09.139Z,25.61
2018-08-11T22:14:37.480Z,25.58
2018-08-11T22:17:05.793Z,25.53
2018-08-11T22:19:34.156Z,25.51
2018-08-11T22:22:02.558Z,25.48
2018-08-11T22:24:30.858Z,25.47
2018-08-11T22:26:59.191Z,25.45
2018-08-11T22:29:27.557Z,25.42
2018-08-11T22:31:55.832Z,25.41
2018-08-11T22:34:24.211Z,25.39
2018-08-11T22:36:52.530Z,25.36
2018-08-11T22:39:20.802Z,25.33
2018-08-11T22:41:49.126Z,25.31
2018-08-11T22:44:17.512Z,25.29
2018-08-11T22:46:45.846Z,25.27
2018-08-11T22:49:14.139Z,25.25
2018-08-11T22:51:42.495Z,25.23
2018-08-11T22:54:10.958Z,25.19
2018-08-11T22:56:39.521Z,25.16
2018-08-11T22:59:07.829Z,25.15
2018-08-11T23:01:36.162Z,25.12
2018-08-11T23:04:04.471Z,25.11
2018-08-11T23:06:32.802Z,25.08
2018-08-11T23:09:01.198Z,25.06
2018-08-11T23:11:29.546Z,25.04
2018-08-11T23:13:57.834Z,25.01
2018-08-11T23:16:26.252Z,25.00
2018-08-11T23:18:54.603Z,24.99
2018-08-11T23:21:22.943Z,24.97
2018-08-11T23:23:51.258Z,24.94
2018-08-11T23:26:19.558Z,24.93
2018-08-11T23:28:47.878Z,24.90
2018-08-11T23:31:16.195Z,24.89
2018-08-11T23:33:44.529Z,24.86
2018-08-11T23:36:13.247Z,24.84
2018-08-11T23:38:41.558Z,24.84
2018-08-11T23:41:09.930Z,24.81
2018-08-11T23:43:38.334Z,24.79
2018-08-11T23:46:06.683Z,24.77
2018-08-11T23:48:35.040Z,24.74
2018-08-11T23:51:10.048Z,24.72
2018-08-11T23:53:38.375Z,24.72
2018-08-11T23:56:06.946Z,24.71
2018-08-11T23:58:35.385Z,24.69
